createdAt,value
2018-08-18T00:00:46.997Z,20.88
2018-08-18T00:01:47.226Z,20.95
2018-08-18T00:02:47.460Z,20.97
2018-08-18T00:03:47.701Z,20.99
2018-08-18T00:04:47.929Z,21.00
2018-08-18T00:05:48.172Z,21.02
2018-08-18T00:06:48.405Z,21.00
2018-08-18T00:07:48.636Z,21.12
2018-08-18T00:08:48.860Z,21.07
2018-08-18T00:09:49.097Z,21.12
2018-08-18T00:10:49.317Z,21.07
2018-08-18T00:11:49.545Z,21.06
2018-08-18T00:12:49.777Z,21.03
2018-08-18T00:13:50.004Z,20.95
2018-08-18T00:14:50.231Z,21.02
2018-08-18T00:15:50.464Z,20.92
2018-08-18T00:16:50.688Z,20.95
2018-08-18T00:17:50.922Z,20.97
2018-08-18T00:18:51.150Z,20.97
2018-08-18T00:19:51.377Z,21.03
2018-08-18T00:20:51.626Z,20.92
2018-08-18T00:21:51.839Z,21.03
2018-08-18T00:22:52.069Z,20.97
2018-08-18T00:23:52.301Z,20.85
2018-08-18T00:24:52.531Z,20.78
2018-08-18T00:25:52.764Z,20.80
2018-08-18T00:26:52.993Z,20.72
2018-08-18T00:27:53.231Z,20.63
2018-08-18T00:28:53.455Z,20.62
2018-08-18T00:29:53.685Z,20.65
2018-08-18T00:30:53.918Z,20.59
2018-08-18T00:31:54.148Z,20.69
2018-08-18T00:32:54.379Z,20.69
2018-08-18T00:33:54.614Z,20.66
2018-08-18T00:34:54.846Z,20.60
2018-08-18T00:35:55.076Z,20.65
2018-08-18T00:36:55.306Z,20.65
2018-08-18T00:37:55.528Z,20.60
2018-08-18T00:38:55.768Z,20.59
2018-08-18T00:39:55.999Z,20.59
2018-08-18T00:40:56.231Z,20.59
2018-08-18T00:41:56.478Z,20.43
2018-08-18T00:42:56.692Z,20.52
2018-08-18T00:43:56.918Z,20.48
2018-08-18T00:44:57.152Z,20.40
2018-08-18T00:45:57.382Z,20.48
2018-08-18T00:46:57.615Z,20.48
2018-08-18T00:47:57.846Z,20.51
2018-08-18T00:48:58.078Z,20.55
2018-08-18T00:49:58.306Z,20.47
2018-08-18T00:50:58.538Z,20.48
2018-08-18T00:51:58.767Z,20.48
2018-08-18T00:52:59.000Z,20.37
2018-08-18T00:53:59.228Z,20.52
2018-08-18T00:54:59.457Z,20.32
2018-08-18T00:55:59.687Z,20.40
2018-08-18T00:56:59.919Z,20.31
2018-08-18T00:58:00.148Z,20.28
2018-08-18T00:59:00.387Z,20.41
2018-08-18T01:00:00.603Z,20.37
2018-08-18T01:01:00.845Z,20.36
2018-08-18T01:02:01.075Z,20.34
2018-08-18T01:03:01.312Z,20.28
2018-08-18T01:04:01.536Z,20.22
2018-08-18T01:05:01.766Z,20.32
2018-08-18T01:06:01.996Z,20.29
2018-08-18T01:07:02.228Z,20.32
2018-08-18T01:08:02.460Z,20.29
2018-08-18T01:09:02.693Z,20.28
2018-08-18T01:10:02.923Z,20.24
2018-08-18T01:11:03.234Z,20.24
2018-08-18T01:12:03.513Z,20.19
2018-08-18T01:13:03.716Z,20.18
2018-08-18T01:14:03.917Z,20.13
2018-08-18T01:15:04.149Z,20.07
2018-08-18T01:16:04.339Z,20.11
2018-08-18T01:17:04.572Z,20.09
2018-08-18T01:18:04.807Z,19.99
2018-08-18T01:19:05.036Z,20.03
2018-08-18T01:20:05.254Z,20.10
2018-08-18T01:21:05.487Z,20.07
2018-08-18T01:22:05.722Z,20.09
2018-08-18T01:23:05.954Z,20.06
2018-08-18T01:24:06.183Z,20.06
2018-08-18T01:25:06.423Z,20.03
2018-08-18T01:26:06.645Z,20.06
2018-08-18T01:27:06.924Z,20.00
2018-08-18T01:28:07.105Z,19.99
2018-08-18T01:29:07.337Z,19.86
2018-08-18T01:30:07.566Z,19.96
2018-08-18T01:31:07.806Z,19.91
2018-08-18T01:32:08.036Z,19.96
2018-08-18T01:33:08.270Z,19.92
2018-08-18T01:34:08.498Z,19.94
2018-08-18T01:35:08.722Z,19.89
2018-08-18T01:36:08.960Z,19.89
2018-08-18T01:37:09.200Z,19.92
2018-08-18T01:38:09.436Z,19.94
2018-08-18T01:39:09.663Z,19.91
2018-08-18T01:40:09.898Z,19.86
2018-08-18T01:41:10.125Z,19.88
2018-08-18T01:42:10.354Z,19.91
2018-08-18T01:43:10.593Z,19.82
2018-08-18T01:44:10.820Z,19.86
2018-08-18T01:45:11.052Z,19.86
2018-08-18T01:46:11.283Z,19.88
2018-08-18T01:47:11.513Z,19.96
2018-08-18T01:48:11.743Z,19.86
2018-08-18T01:49:11.975Z,19.89
2018-08-18T01:50:12.213Z,19.89
2018-08-18T01:51:12.435Z,19.94
2018-08-18T01:52:12.662Z,19.91
2018-08-18T01:53:12.891Z,19.92
2018-08-18T01:54:13.122Z,19.96
2018-08-18T01:55:13.354Z,19.94
2018-08-18T01:56:13.582Z,19.88
2018-08-18T01:57:13.806Z,19.99
2018-08-18T01:58:14.035Z,19.91
2018-08-18T01:59:14.269Z,20.02
2018-08-18T02:00:14.494Z,20.04
2018-08-18T02:01:14.728Z,20.10
2018-08-18T02:02:14.956Z,20.02
2018-08-18T02:03:15.185Z,20.07
2018-08-18T02:04:15.440Z,19.96
2018-08-18T02:05:15.646Z,20.04
2018-08-18T02:06:15.875Z,20.02
2018-08-18T02:07:16.117Z,19.92
2018-08-18T02:08:16.335Z,19.94
2018-08-18T02:09:16.567Z,19.95
2018-08-18T02:10:16.795Z,19.89
2018-08-18T02:11:17.031Z,19.86
2018-08-18T02:12:17.256Z,19.89
2018-08-18T02:13:17.482Z,19.92
2018-08-18T02:14:17.717Z,19.95
2018-08-18T02:15:17.946Z,19.94
2018-08-18T02:16:18.177Z,19.94
2018-08-18T02:17:18.407Z,19.95
2018-08-18T02:18:18.634Z,19.99
2018-08-18T02:19:18.874Z,19.91
2018-08-18T02:20:19.102Z,19.91
2018-08-18T02:21:19.335Z,20.00
2018-08-18T02:22:19.565Z,19.94
2018-08-18T02:23:19.801Z,19.91
2018-08-18T02:24:20.025Z,19.99
2018-08-18T02:25:20.257Z,19.92
2018-08-18T02:26:20.482Z,19.89
2018-08-18T02:27:20.716Z,19.86
2018-08-18T02:28:20.939Z,19.81
2018-08-18T02:29:21.171Z,19.89
2018-08-18T02:30:21.399Z,19.79
2018-08-18T02:31:21.636Z,19.71
2018-08-18T02:32:21.859Z,19.66
2018-08-18T02:33:22.102Z,19.69
2018-08-18T02:34:30.196Z,19.56
2018-08-18T02:35:30.659Z,19.41
2018-08-18T02:36:30.606Z,19.40
2018-08-18T02:37:31.334Z,19.49
2018-08-18T02:38:32.247Z,19.49
2018-08-18T02:39:31.496Z,19.59
2018-08-18T02:40:31.758Z,19.58
2018-08-18T02:41:24.005Z,19.59
2018-08-18T02:42:33.213Z,19.64
2018-08-18T02:43:24.419Z,19.64
2018-08-18T02:44:24.653Z,19.58
2018-08-18T02:45:24.882Z,19.62
2018-08-18T02:46:25.115Z,19.63
2018-08-18T02:47:25.347Z,19.49
2018-08-18T02:48:25.583Z,19.51
2018-08-18T02:49:25.811Z,19.56
2018-08-18T02:50:26.027Z,19.49
2018-08-18T02:51:26.267Z,19.51
2018-08-18T02:52:26.483Z,19.40
2018-08-18T02:53:26.713Z,19.33
2018-08-18T02:54:26.948Z,19.36
2018-08-18T02:55:27.184Z,19.37
2018-08-18T02:56:27.426Z,19.29
2018-08-18T02:57:27.881Z,19.24
2018-08-18T02:58:27.850Z,19.14
2018-08-18T02:59:28.076Z,19.04
2018-08-18T03:00:28.306Z,18.99
2018-08-18T03:01:28.537Z,18.89
2018-08-18T03:02:28.772Z,18.90
2018-08-18T03:03:29.007Z,18.90
2018-08-18T03:04:29.243Z,18.96
2018-08-18T03:05:29.467Z,18.80
2018-08-18T03:06:29.705Z,18.98
2018-08-18T03:07:29.924Z,19.00
2018-08-18T03:08:30.152Z,19.11
2018-08-18T03:09:30.387Z,19.00
2018-08-18T03:10:30.607Z,19.11
2018-08-18T03:11:30.839Z,19.14
2018-08-18T03:12:31.064Z,19.18
2018-08-18T03:13:31.298Z,19.18
2018-08-18T03:14:31.518Z,19.11
2018-08-18T03:15:31.753Z,19.15
2018-08-18T03:16:31.972Z,19.12
2018-08-18T03:17:32.207Z,19.08
2018-08-18T03:18:32.431Z,19.12
2018-08-18T03:19:32.665Z,19.11
2018-08-18T03:20:32.895Z,19.08
2018-08-18T03:21:33.120Z,19.08
2018-08-18T03:22:33.353Z,19.12
2018-08-18T03:23:33.582Z,19.15
2018-08-18T03:24:33.810Z,19.16
2018-08-18T03:25:34.049Z,19.16
2018-08-18T03:26:34.260Z,19.14
2018-08-18T03:27:34.492Z,19.07
2018-08-18T03:28:34.737Z,19.21
2018-08-18T03:29:34.959Z,19.12
2018-08-18T03:30:35.190Z,19.19
2018-08-18T03:31:35.415Z,19.18
2018-08-18T03:32:35.649Z,19.15
2018-08-18T03:33:35.861Z,19.11
2018-08-18T03:34:36.098Z,19.00
2018-08-18T03:35:36.324Z,19.00
2018-08-18T03:36:36.562Z,18.99
2018-08-18T03:37:36.791Z,19.11
2018-08-18T03:38:37.022Z,19.02
2018-08-18T03:39:37.258Z,19.00
2018-08-18T03:40:37.482Z,19.08
2018-08-18T03:41:37.714Z,19.09
2018-08-18T03:42:37.940Z,19.04
2018-08-18T03:43:38.170Z,19.08
2018-08-18T03:44:38.398Z,18.93
2018-08-18T03:45:38.630Z,18.98
2018-08-18T03:46:38.852Z,19.00
2018-08-18T03:47:39.082Z,19.00
2018-08-18T03:48:39.314Z,19.07
2018-08-18T03:49:39.547Z,19.11
2018-08-18T03:50:39.775Z,19.16
2018-08-18T03:51:40.014Z,19.19
2018-08-18T03:52:40.233Z,19.22
2018-08-18T03:53:40.469Z,19.16
2018-08-18T03:54:40.698Z,19.19
2018-08-18T03:55:40.925Z,19.21
2018-08-18T03:56:41.152Z,19.24
2018-08-18T03:57:41.374Z,19.33
2018-08-18T03:58:41.603Z,19.24
2018-08-18T03:59:41.831Z,19.33
2018-08-18T04:00:42.060Z,19.16
2018-08-18T04:01:42.406Z,19.27
2018-08-18T04:02:42.520Z,19.31
2018-08-18T04:03:42.762Z,19.31
2018-08-18T04:04:42.985Z,19.19
2018-08-18T04:05:43.209Z,19.19
2018-08-18T04:06:43.452Z,19.29
2018-08-18T04:07:43.670Z,19.21
2018-08-18T04:08:43.894Z,19.29
2018-08-18T04:09:44.119Z,19.19
2018-08-18T04:10:44.353Z,19.26
2018-08-18T04:11:44.583Z,19.31
2018-08-18T04:12:44.810Z,19.39
2018-08-18T04:13:45.054Z,19.26
2018-08-18T04:14:45.265Z,19.19
2018-08-18T04:15:45.501Z,19.24
2018-08-18T04:16:45.722Z,19.18
2018-08-18T04:17:45.955Z,19.16
2018-08-18T04:18:46.187Z,19.16
2018-08-18T04:19:46.406Z,19.21
2018-08-18T04:20:46.636Z,19.21
2018-08-18T04:21:46.859Z,19.16
2018-08-18T04:22:47.083Z,19.16
2018-08-18T04:23:47.327Z,19.12
2018-08-18T04:24:47.554Z,18.96
2018-08-18T04:25:47.783Z,18.90
2018-08-18T04:26:48.010Z,18.89
2018-08-18T04:27:48.229Z,19.08
2018-08-18T04:28:48.462Z,19.02
2018-08-18T04:29:48.693Z,19.19
2018-08-18T04:30:48.922Z,19.08
2018-08-18T04:31:49.155Z,19.15
2018-08-18T04:32:49.384Z,19.07
2018-08-18T04:33:49.613Z,19.08
2018-08-18T04:34:49.838Z,18.99
2018-08-18T04:35:50.068Z,19.11
2018-08-18T04:36:50.297Z,19.08
2018-08-18T04:37:50.537Z,19.08
2018-08-18T04:38:50.758Z,19.14
2018-08-18T04:39:50.989Z,19.16
2018-08-18T04:40:51.219Z,19.18
2018-08-18T04:41:51.450Z,19.21
2018-08-18T04:42:51.683Z,19.18
2018-08-18T04:43:51.951Z,19.19
2018-08-18T04:44:52.139Z,19.19
2018-08-18T04:45:52.371Z,19.24
2018-08-18T04:46:52.600Z,19.31
2018-08-18T04:47:52.832Z,19.31
2018-08-18T04:48:53.054Z,19.34
2018-08-18T04:49:53.286Z,19.33
2018-08-18T04:50:53.521Z,19.34
2018-08-18T04:51:53.745Z,19.36
2018-08-18T04:52:53.980Z,19.40
2018-08-18T04:53:54.205Z,19.49
2018-08-18T04:54:54.428Z,19.56
2018-08-18T04:55:54.665Z,19.64
2018-08-18T04:56:54.981Z,19.64
2018-08-18T04:57:55.110Z,19.64
2018-08-18T04:58:55.351Z,19.77
2018-08-18T04:59:55.581Z,19.92
2018-08-18T05:00:55.807Z,19.96
2018-08-18T05:01:56.040Z,20.04
2018-08-18T05:02:56.262Z,20.21
2018-08-18T05:03:56.498Z,20.28
2018-08-18T05:04:56.781Z,20.43
2018-08-18T05:05:56.962Z,20.44
2018-08-18T05:06:57.190Z,20.50
2018-08-18T05:07:57.474Z,20.59
2018-08-18T05:08:57.748Z,20.59
2018-08-18T05:09:57.920Z,20.77
2018-08-18T05:10:58.137Z,20.78
2018-08-18T05:11:58.360Z,20.78
2018-08-18T05:12:58.616Z,20.84
2018-08-18T05:13:58.849Z,20.88
2018-08-18T05:14:59.076Z,20.85
2018-08-18T05:15:59.317Z,20.90
2018-08-18T05:16:59.544Z,20.95
2018-08-18T05:17:59.773Z,20.96
2018-08-18T05:19:00.131Z,20.78
2018-08-18T05:20:00.236Z,20.81
2018-08-18T05:21:00.466Z,20.96
2018-08-18T05:22:00.700Z,21.07
2018-08-18T05:23:00.933Z,21.15
2018-08-18T05:24:01.165Z,21.36
2018-08-18T05:25:01.400Z,21.39
2018-08-18T05:26:01.630Z,21.51
2018-08-18T05:27:01.862Z,21.40
2018-08-18T05:28:02.096Z,21.51
2018-08-18T05:29:02.329Z,21.75
2018-08-18T05:30:02.561Z,21.91
2018-08-18T05:31:02.794Z,21.95
2018-08-18T05:32:03.023Z,21.83
2018-08-18T05:33:03.258Z,21.98
2018-08-18T05:34:03.509Z,21.96
2018-08-18T05:35:03.724Z,21.85
2018-08-18T05:36:03.952Z,21.72
2018-08-18T05:37:04.189Z,21.72
2018-08-18T05:38:04.422Z,21.64
2018-08-18T05:39:04.650Z,21.61
2018-08-18T05:40:04.887Z,21.52
2018-08-18T05:41:05.120Z,21.51
2018-08-18T05:42:05.351Z,21.45
2018-08-18T05:43:05.583Z,21.32
2018-08-18T05:44:05.816Z,21.39
2018-08-18T05:45:06.054Z,21.35
2018-08-18T05:46:06.283Z,21.25
2018-08-18T05:47:06.518Z,21.25
2018-08-18T05:48:06.748Z,21.30
2018-08-18T05:49:06.973Z,21.27
2018-08-18T05:50:07.206Z,21.00
2018-08-18T05:51:15.278Z,21.06
2018-08-18T05:52:15.498Z,21.14
2018-08-18T05:53:16.753Z,20.96
2018-08-18T05:54:16.164Z,21.12
2018-08-18T05:55:16.176Z,21.09
2018-08-18T05:56:08.667Z,20.97
2018-08-18T05:57:16.631Z,21.12
2018-08-18T05:58:16.918Z,21.24
2018-08-18T05:59:09.400Z,21.20
2018-08-18T06:00:09.639Z,21.37
2018-08-18T06:01:09.861Z,21.27
2018-08-18T06:02:10.096Z,21.37
2018-08-18T06:03:10.323Z,21.42
2018-08-18T06:04:10.558Z,21.43
2018-08-18T06:05:10.785Z,21.50
2018-08-18T06:06:11.025Z,21.55
2018-08-18T06:07:11.252Z,21.48
2018-08-18T06:08:11.484Z,21.46
2018-08-18T06:09:11.722Z,21.33
2018-08-18T06:10:11.939Z,21.46
2018-08-18T06:11:12.173Z,21.51
2018-08-18T06:12:12.447Z,21.30
2018-08-18T06:13:12.629Z,21.15
2018-08-18T06:14:12.872Z,21.05
2018-08-18T06:15:13.094Z,21.24
2018-08-18T06:16:13.338Z,21.14
2018-08-18T06:17:13.560Z,21.15
2018-08-18T06:18:13.779Z,21.14
2018-08-18T06:19:14.006Z,21.14
2018-08-18T06:20:14.239Z,21.25
2018-08-18T06:21:14.466Z,21.50
2018-08-18T06:22:14.718Z,21.51
2018-08-18T06:23:14.942Z,21.55
2018-08-18T06:24:15.161Z,21.48
2018-08-18T06:25:15.398Z,21.64
2018-08-18T06:26:15.624Z,21.67
2018-08-18T06:27:15.860Z,21.66
2018-08-18T06:28:16.090Z,21.62
2018-08-18T06:29:16.325Z,21.70
2018-08-18T06:30:16.559Z,21.76
2018-08-18T06:31:16.791Z,21.77
2018-08-18T06:32:17.026Z,21.89
2018-08-18T06:33:17.261Z,22.00
2018-08-18T06:34:17.493Z,21.99
2018-08-18T06:35:17.728Z,22.20
2018-08-18T06:36:17.957Z,22.18
2018-08-18T06:37:18.191Z,22.15
2018-08-18T06:38:18.427Z,22.28
2018-08-18T06:39:18.655Z,22.32
2018-08-18T06:40:18.890Z,22.35
2018-08-18T06:41:19.179Z,22.51
2018-08-18T06:42:19.349Z,22.53
2018-08-18T06:43:19.585Z,22.55
2018-08-18T06:44:19.818Z,22.59
2018-08-18T06:45:20.053Z,22.75
2018-08-18T06:46:20.292Z,22.75
2018-08-18T06:47:20.528Z,22.73
2018-08-18T06:48:20.759Z,22.81
2018-08-18T06:49:21.001Z,22.83
2018-08-18T06:50:21.223Z,22.94
2018-08-18T06:51:21.458Z,22.99
2018-08-18T06:52:21.690Z,23.13
2018-08-18T06:53:21.922Z,22.88
2018-08-18T06:54:22.213Z,22.93
2018-08-18T06:55:22.425Z,22.70
2018-08-18T06:56:22.663Z,22.85
2018-08-18T06:57:22.886Z,23.00
2018-08-18T06:58:23.119Z,22.80
2018-08-18T06:59:23.354Z,22.91
2018-08-18T07:00:23.587Z,23.00
2018-08-18T07:01:23.819Z,23.20
2018-08-18T07:02:24.050Z,23.32
2018-08-18T07:03:24.281Z,23.31
2018-08-18T07:04:24.519Z,23.51
2018-08-18T07:05:24.754Z,23.50
2018-08-18T07:06:24.989Z,23.62
2018-08-18T07:07:25.219Z,23.74
2018-08-18T07:08:25.456Z,23.77
2018-08-18T07:09:25.688Z,23.68
2018-08-18T07:10:25.921Z,23.73
2018-08-18T07:11:26.160Z,23.80
2018-08-18T07:12:26.393Z,23.74
2018-08-18T07:13:26.629Z,23.74
2018-08-18T07:14:26.861Z,23.44
2018-08-18T07:15:27.104Z,23.39
2018-08-18T07:16:27.328Z,23.51
2018-08-18T07:17:27.563Z,23.65
2018-08-18T07:18:27.797Z,23.69
2018-08-18T07:19:28.095Z,23.77
2018-08-18T07:20:28.268Z,23.91
2018-08-18T07:21:28.497Z,23.93
2018-08-18T07:22:28.732Z,23.93
2018-08-18T07:23:28.965Z,23.99
2018-08-18T07:24:29.201Z,23.80
2018-08-18T07:25:29.434Z,23.81
2018-08-18T07:26:29.664Z,23.96
2018-08-18T07:27:29.889Z,24.11
2018-08-18T07:28:30.156Z,24.23
2018-08-18T07:29:30.359Z,24.26
2018-08-18T07:30:30.594Z,24.21
2018-08-18T07:31:30.829Z,24.30
2018-08-18T07:32:31.067Z,24.16
2018-08-18T07:33:31.294Z,24.47
2018-08-18T07:34:31.529Z,24.61
2018-08-18T07:35:32.733Z,24.73
2018-08-18T07:36:31.976Z,24.84
2018-08-18T07:37:32.277Z,24.68
2018-08-18T07:38:32.450Z,24.69
2018-08-18T07:39:32.684Z,24.69
2018-08-18T07:40:32.924Z,24.78
2018-08-18T07:41:33.155Z,24.93
2018-08-18T07:42:33.390Z,25.06
2018-08-18T07:43:33.624Z,25.17
2018-08-18T07:44:33.860Z,25.13
2018-08-18T07:45:34.092Z,25.38
2018-08-18T07:46:34.328Z,25.33
2018-08-18T07:47:34.562Z,25.38
2018-08-18T07:48:34.791Z,25.50
2018-08-18T07:49:35.064Z,25.50
2018-08-18T07:50:35.271Z,25.50
2018-08-18T07:51:35.508Z,25.54
2018-08-18T07:52:35.741Z,25.51
2018-08-18T07:53:36.059Z,25.60
2018-08-18T07:54:36.223Z,25.66
2018-08-18T07:55:36.440Z,25.81
2018-08-18T07:56:36.676Z,25.78
2018-08-18T07:57:36.917Z,25.84
2018-08-18T07:58:37.144Z,26.03
2018-08-18T07:59:37.403Z,26.34
2018-08-18T08:00:37.623Z,26.43
2018-08-18T08:01:37.855Z,26.41
2018-08-18T08:02:38.091Z,26.36
2018-08-18T08:03:38.326Z,26.40
2018-08-18T08:04:38.567Z,26.60
2018-08-18T08:05:38.813Z,26.48
2018-08-18T08:06:39.039Z,26.23
2018-08-18T08:07:39.275Z,25.95
2018-08-18T08:08:39.506Z,25.95
2018-08-18T08:09:39.743Z,26.02
2018-08-18T08:10:39.979Z,25.95
2018-08-18T08:11:40.214Z,25.90
2018-08-18T08:12:40.562Z,25.69
2018-08-18T08:13:40.689Z,25.53
2018-08-18T08:14:40.930Z,24.99
2018-08-18T08:15:41.157Z,25.14
2018-08-18T08:16:41.396Z,25.06
2018-08-18T08:17:41.630Z,25.13
2018-08-18T08:18:41.860Z,25.18
2018-08-18T08:19:42.091Z,25.23
2018-08-18T08:20:42.335Z,25.07
2018-08-18T08:21:42.563Z,25.21
2018-08-18T08:22:42.800Z,25.18
2018-08-18T08:23:43.042Z,25.18
2018-08-18T08:24:43.272Z,24.89
2018-08-18T08:25:43.512Z,25.06
2018-08-18T08:26:43.741Z,25.06
2018-08-18T08:27:43.981Z,24.85
2018-08-18T08:28:44.218Z,24.81
2018-08-18T08:29:44.455Z,24.88
2018-08-18T08:30:44.685Z,24.95
2018-08-18T08:31:44.921Z,24.96
2018-08-18T08:32:45.156Z,24.89
2018-08-18T08:33:45.400Z,24.96
2018-08-18T08:34:45.634Z,25.07
2018-08-18T08:35:45.871Z,24.91
2018-08-18T08:36:46.137Z,24.88
2018-08-18T08:37:46.338Z,24.96
2018-08-18T08:38:46.574Z,25.22
2018-08-18T08:39:46.792Z,25.18
2018-08-18T08:40:47.028Z,25.28
2018-08-18T08:41:47.273Z,25.41
2018-08-18T08:42:47.513Z,25.35
2018-08-18T08:43:47.732Z,25.31
2018-08-18T08:44:47.964Z,25.35
2018-08-18T08:45:48.197Z,25.40
2018-08-18T08:46:48.432Z,25.25
2018-08-18T08:47:48.693Z,25.31
2018-08-18T08:48:48.901Z,25.44
2018-08-18T08:49:49.135Z,25.32
2018-08-18T08:50:49.371Z,25.41
2018-08-18T08:51:49.605Z,25.44
2018-08-18T08:52:49.852Z,25.54
2018-08-18T08:53:50.077Z,25.41
2018-08-18T08:54:50.309Z,25.23
2018-08-18T08:55:50.544Z,25.28
2018-08-18T08:56:50.775Z,25.17
2018-08-18T08:57:51.001Z,25.50
2018-08-18T08:58:51.271Z,25.43
2018-08-18T08:59:51.527Z,25.44
2018-08-18T09:00:51.735Z,25.48
2018-08-18T09:01:51.979Z,25.60
2018-08-18T09:02:52.213Z,25.50
2018-08-18T09:03:52.447Z,25.62
2018-08-18T09:04:52.684Z,25.75
2018-08-18T09:05:52.917Z,25.84
2018-08-18T09:06:53.154Z,26.03
2018-08-18T09:07:53.388Z,26.13
2018-08-18T09:08:53.628Z,26.29
2018-08-18T09:09:53.869Z,26.13
2018-08-18T09:10:54.101Z,26.03
2018-08-18T09:11:54.326Z,25.95
2018-08-18T09:12:54.566Z,26.05
2018-08-18T09:13:54.801Z,25.98
2018-08-18T09:14:55.034Z,26.22
2018-08-18T09:15:55.271Z,26.31
2018-08-18T09:17:03.159Z,26.41
2018-08-18T09:17:55.746Z,26.09
2018-08-18T09:19:03.673Z,26.16
2018-08-18T09:20:04.115Z,26.25
2018-08-18T09:20:56.422Z,26.16
2018-08-18T09:21:56.659Z,26.05
2018-08-18T09:22:56.888Z,25.88
2018-08-18T09:23:57.129Z,26.02
2018-08-18T09:24:57.358Z,26.09
2018-08-18T09:25:57.610Z,26.38
2018-08-18T09:26:57.828Z,26.19
2018-08-18T09:27:58.060Z,26.21
2018-08-18T09:28:58.299Z,26.25
2018-08-18T09:29:58.532Z,26.26
2018-08-18T09:30:58.770Z,26.10
2018-08-18T09:31:59.005Z,26.37
2018-08-18T09:32:59.244Z,26.26
2018-08-18T09:33:59.476Z,26.45
2018-08-18T09:34:59.711Z,26.43
2018-08-18T09:35:59.950Z,26.43
2018-08-18T09:37:00.187Z,26.31
2018-08-18T09:38:00.423Z,26.34
2018-08-18T09:39:00.661Z,26.51
2018-08-18T09:40:00.891Z,26.52
2018-08-18T09:41:01.132Z,26.52
2018-08-18T09:42:01.358Z,26.58
2018-08-18T09:43:01.592Z,26.58
2018-08-18T09:44:01.828Z,26.63
2018-08-18T09:45:02.064Z,26.63
2018-08-18T09:46:02.300Z,26.63
2018-08-18T09:47:02.539Z,26.47
2018-08-18T09:48:02.765Z,26.38
2018-08-18T09:49:03.002Z,26.58
2018-08-18T09:50:03.237Z,26.74
2018-08-18T09:51:03.475Z,26.80
2018-08-18T09:52:03.718Z,26.99
2018-08-18T09:53:03.950Z,27.08
2018-08-18T09:54:04.187Z,26.95
2018-08-18T09:55:04.422Z,27.10
2018-08-18T09:56:04.686Z,27.08
2018-08-18T09:57:04.933Z,26.95
2018-08-18T09:58:05.159Z,26.97
2018-08-18T09:59:05.429Z,27.03
2018-08-18T10:00:05.633Z,27.15
2018-08-18T10:01:05.873Z,26.99
2018-08-18T10:02:06.109Z,26.80
2018-08-18T10:03:06.353Z,26.77
2018-08-18T10:04:06.587Z,26.97
2018-08-18T10:05:06.823Z,26.85
2018-08-18T10:06:07.058Z,27.00
2018-08-18T10:07:07.300Z,27.14
2018-08-18T10:08:07.524Z,27.32
2018-08-18T10:09:07.879Z,27.42
2018-08-18T10:10:07.994Z,27.71
2018-08-18T10:11:08.228Z,27.87
2018-08-18T10:12:08.467Z,27.98
2018-08-18T10:13:08.702Z,27.98
2018-08-18T10:14:08.942Z,28.02
2018-08-18T10:15:09.173Z,28.14
2018-08-18T10:16:09.404Z,28.33
2018-08-18T10:17:09.640Z,28.29
2018-08-18T10:18:09.876Z,28.38
2018-08-18T10:19:10.124Z,28.39
2018-08-18T10:20:10.362Z,28.38
2018-08-18T10:21:10.598Z,28.42
2018-08-18T10:22:10.834Z,28.51
2018-08-18T10:23:11.070Z,28.41
2018-08-18T10:24:11.314Z,28.41
2018-08-18T10:25:11.553Z,28.59
2018-08-18T10:26:11.806Z,28.59
2018-08-18T10:27:12.073Z,28.64
2018-08-18T10:28:12.260Z,28.63
2018-08-18T10:29:12.495Z,28.56
2018-08-18T10:30:12.730Z,28.37
2018-08-18T10:31:12.966Z,28.23
2018-08-18T10:32:13.209Z,28.20
2018-08-18T10:33:13.483Z,28.07
2018-08-18T10:34:13.740Z,28.19
2018-08-18T10:35:13.849Z,28.01
2018-08-18T10:36:14.097Z,27.95
2018-08-18T10:37:14.336Z,27.98
2018-08-18T10:38:14.575Z,27.85
2018-08-18T10:39:14.808Z,27.90
2018-08-18T10:40:15.046Z,27.75
2018-08-18T10:41:15.283Z,27.90
2018-08-18T10:42:15.584Z,27.83
2018-08-18T10:43:15.754Z,27.89
2018-08-18T10:44:16.000Z,27.73
2018-08-18T10:45:16.224Z,27.74
2018-08-18T10:46:16.461Z,27.63
2018-08-18T10:47:16.696Z,27.39
2018-08-18T10:48:16.935Z,27.36
2018-08-18T10:49:17.175Z,27.11
2018-08-18T10:50:17.415Z,27.32
2018-08-18T10:51:17.659Z,27.30
2018-08-18T10:52:17.890Z,27.32
2018-08-18T10:53:18.128Z,27.36
2018-08-18T10:54:18.391Z,27.35
2018-08-18T10:55:18.630Z,27.45
2018-08-18T10:56:18.836Z,27.63
2018-08-18T10:57:19.074Z,27.65
2018-08-18T10:58:19.316Z,27.64
2018-08-18T10:59:19.563Z,27.68
2018-08-18T11:00:19.797Z,27.82
2018-08-18T11:01:20.033Z,27.90
2018-08-18T11:02:20.269Z,27.89
2018-08-18T11:03:20.505Z,27.86
2018-08-18T11:04:20.741Z,27.98
2018-08-18T11:05:20.970Z,28.07
2018-08-18T11:06:21.204Z,28.02
2018-08-18T11:07:21.440Z,27.96
2018-08-18T11:08:21.677Z,28.05
2018-08-18T11:09:21.911Z,28.11
2018-08-18T11:10:22.150Z,28.04
2018-08-18T11:11:22.390Z,28.07
2018-08-18T11:12:22.625Z,27.95
2018-08-18T11:13:22.860Z,28.02
2018-08-18T11:14:23.097Z,28.02
2018-08-18T11:15:23.347Z,28.01
2018-08-18T11:16:23.589Z,28.07
2018-08-18T11:17:23.830Z,27.89
2018-08-18T11:18:24.062Z,27.96
2018-08-18T11:19:24.298Z,28.00
2018-08-18T11:20:24.533Z,27.87
2018-08-18T11:21:24.772Z,27.90
2018-08-18T11:22:25.004Z,27.86
2018-08-18T11:23:25.247Z,27.95
2018-08-18T11:24:25.484Z,27.87
2018-08-18T11:25:25.721Z,27.98
2018-08-18T11:26:25.968Z,28.15
2018-08-18T11:27:26.199Z,28.08
2018-08-18T11:28:26.495Z,28.17
2018-08-18T11:29:27.345Z,28.37
2018-08-18T11:30:26.958Z,28.45
2018-08-18T11:31:27.193Z,28.38
2018-08-18T11:32:27.427Z,28.47
2018-08-18T11:33:27.663Z,28.32
2018-08-18T11:34:27.905Z,28.51
2018-08-18T11:35:28.157Z,28.33
2018-08-18T11:36:28.388Z,28.44
2018-08-18T11:37:30.386Z,28.57
2018-08-18T11:38:28.823Z,28.70
2018-08-18T11:39:29.054Z,28.64
2018-08-18T11:40:29.294Z,28.67
2018-08-18T11:41:29.553Z,28.86
2018-08-18T11:42:29.776Z,28.82
2018-08-18T11:43:30.016Z,28.89
2018-08-18T11:44:30.253Z,28.93
2018-08-18T11:45:30.498Z,28.94
2018-08-18T11:46:30.746Z,28.97
2018-08-18T11:47:30.969Z,29.02
2018-08-18T11:48:31.216Z,29.01
2018-08-18T11:49:31.456Z,28.93
2018-08-18T11:50:31.696Z,28.97
2018-08-18T11:51:31.933Z,29.08
2018-08-18T11:52:32.171Z,29.16
2018-08-18T11:53:32.409Z,29.19
2018-08-18T11:54:32.650Z,29.22
2018-08-18T11:55:32.890Z,29.14
2018-08-18T11:56:33.136Z,29.20
2018-08-18T11:57:33.368Z,29.34
2018-08-18T11:58:33.607Z,29.36
2018-08-18T11:59:33.847Z,29.08
2018-08-18T12:00:34.092Z,29.20
2018-08-18T12:01:34.331Z,29.20
2018-08-18T12:02:34.570Z,29.26
2018-08-18T12:03:34.805Z,29.29
2018-08-18T12:04:35.040Z,29.27
2018-08-18T12:05:35.278Z,29.31
2018-08-18T12:06:35.517Z,29.35
2018-08-18T12:07:35.764Z,29.34
2018-08-18T12:08:35.995Z,29.41
2018-08-18T12:09:36.241Z,29.42
2018-08-18T12:10:36.523Z,29.50
2018-08-18T12:11:36.712Z,29.53
2018-08-18T12:12:36.950Z,29.54
2018-08-18T12:13:37.198Z,29.72
2018-08-18T12:14:37.428Z,29.65
2018-08-18T12:15:38.380Z,29.76
2018-08-18T12:16:37.862Z,29.54
2018-08-18T12:17:38.102Z,29.63
2018-08-18T12:18:38.339Z,29.69
2018-08-18T12:19:38.576Z,29.86
2018-08-18T12:20:38.811Z,30.00
2018-08-18T12:21:39.053Z,29.97
2018-08-18T12:22:39.293Z,29.61
2018-08-18T12:23:39.537Z,29.73
2018-08-18T12:24:39.776Z,29.87
2018-08-18T12:25:40.011Z,30.02
2018-08-18T12:26:40.249Z,30.08
2018-08-18T12:27:40.490Z,30.19
2018-08-18T12:28:40.722Z,30.23
2018-08-18T12:29:40.992Z,30.37
2018-08-18T12:30:41.197Z,30.37
2018-08-18T12:31:41.469Z,30.34
2018-08-18T12:32:41.727Z,30.23
2018-08-18T12:33:41.973Z,29.86
2018-08-18T12:34:42.211Z,29.73
2018-08-18T12:35:42.473Z,29.72
2018-08-18T12:36:42.755Z,29.79
2018-08-18T12:37:42.944Z,29.90
2018-08-18T12:38:50.862Z,29.95
2018-08-18T12:39:43.426Z,29.95
2018-08-18T12:40:43.666Z,29.95
2018-08-18T12:41:51.566Z,29.94
2018-08-18T12:42:44.161Z,29.95
2018-08-18T12:43:52.086Z,29.94
2018-08-18T12:44:44.663Z,29.87
2018-08-18T12:45:44.905Z,29.81
2018-08-18T12:46:45.159Z,29.78
2018-08-18T12:47:45.382Z,29.66
2018-08-18T12:48:45.625Z,29.78
2018-08-18T12:49:45.931Z,29.90
2018-08-18T12:50:46.106Z,30.08
2018-08-18T12:51:46.344Z,30.19
2018-08-18T12:52:46.582Z,30.00
2018-08-18T12:53:46.822Z,30.21
2018-08-18T12:54:47.057Z,29.90
2018-08-18T12:55:47.297Z,30.16